Welkom

Welkom op Stormcell.be, dé website waar (on)weer al sinds 2011 anders wordt bekeken.

Op onze site vindt de bezoeker duidelijke weermodellen, data van het StormCell weerstation in regio Ninove (België) én kan men het onweer live volgen via lightningmaps.org.

We beschikken over een Facebook pagina waar weergerelateerde berichten worden gedeeld en waar we zelf ook waarschuwingen uitsturen indien nodig.

U leest het goed: indien nodig, dus geen onheilspellende berichten als de storm slechts in een glas water zal woeden. We zijn niet uit op sensatie of het zaaien van angst. We bekijken het (on)weer met klare kijk op de feiten. 

[Source: ADDS]
METAR
EBBR 172150Z 29009KT 9999 SCT007 BKN008 02/01 Q1014 TEMPO 3500 SHSN BKN008 =
EBBR 171720Z 1718/1824 30012KT 9999 SCT010 BKN020 TEMPO 1718/1803 3500 SHRASN SCT008 BKN014CB PROB30 TEMPO 1718/1803 2500 SHSN BKN005 BKN012TCU PROB30 TEMPO 1803/1809 4000 BR BKN005
TAF
EBBR 171720Z 1718/1824 30012KT 9999 SCT010 BKN020 TEMPO 1718/1803 3500 SHRASN SCT008 BKN014CB PROB30 TEMPO 1718/1803 2500 SHSN BKN005 BKN012TCU PROB30 TEMPO 1803/1809 4000 BR BKN005 =

Visweer Vlissingen

Please publish modules in offcanvas position.

StormCell is een non profit organisatie zonder oogmerk tot sensatie